| Date | Temp | Humidity | Rainfall | Dew Point | Wind Direction | Wind Speed | Wind Pressure | Condition | Visibility |
|---|---|---|---|---|---|---|---|---|---|
| 2025-02-22 21:00:01 | 24 | 97 | 0 | 24 | 100 | 5.7 | 1012 | Cloudy | 10 KM |
| 2025-02-22 20:00:18 | 24 | 98 | 0 | 24 | 130 | 9.5 | 1011 | Rain | 10 KM |
| 2025-02-22 19:01:00 | 23 | 97 | 0 | 23 | 100 | 11.4 | 1011 | Rain | 10 KM |
| 2025-02-22 18:03:50 | 24 | 98 | 0 | 23 | 090 | 5.7 | 1010 | Rain | 9 KM |
| 2025-02-22 17:00:07 | 25 | 97 | 7 | 24 | 160 | 9.5 | 1010 | Rain | 5 KM |
| 2025-02-22 16:02:37 | 28 | 85 | 0.01 | 25 | 310 | 13.3 | 1010 | Showers | 8 KM |
| 2025-02-22 15:02:39 | 30 | 77 | 0.00 | 25 | 290 | 15.2 | 1010 | Distant showers | 15 km |
| 2025-02-22 14:01:23 | 30 | 72 | 0.00 | 24 | 270 | 7.6 | 1010 | Distant showers | 15 km |
| 2025-02-22 12:57:22 | 30 | 72 | 24 | 210 | 9.5 | 1012 | Distant showers | 15 KM | |
| 2025-02-22 11:59:13 | 29 | 76 | 24 | 240 | 9.5 | 1013 | Distant showers | 15 KM | |
| 2025-02-22 11:00:52 | 28 | 77 | 24 | 180 | 11.4 | 1014 | Cloudy | 20 km | |
| 2025-02-22 10:03:51 | 27 | 85 | 24 | 190 | 15.2 | 1014 | Cloudy | 20 KM | |
| 2025-02-22 09:01:32 | 26 | 88 | 24 | 190 | 13.3 | 1013 | Distant showers | 15 KM | |
| 2025-02-22 08:00:40 | 25 | 94 | 0.0 | 24 | 190 | 5.7 | 1013 | Cloudy | 20 km |
| 2025-02-22 07:00:38 | 24 | 96 | 0.0 | 23 | 160 | 3.8 | 1012 | Cloudy | 20 km |
| 2025-02-22 06:00:03 | 24 | 97 | 0.00 | 24 | 150 | 5.7 | 1011 | Cloudy | 15 km |
| 2025-02-22 05:02:19 | 24 | 98 | 0.01 | 24 | 170 | 5.7 | 1011 | Cloudy | 10 km |
| 2025-02-22 04:01:52 | 24 | 98 | 0.01 | 24 | 210 | 7.6 | 1011 | Rain | 09 km |
| 2025-02-22 03:02:33 | 24 | 99 | 0.01 | 24 | 060 | 7.6 | 1012 | Thundershowers | 04 km |
| 2025-02-22 02:00:13 | 24 | 98 | 24 | 180 | 1.9 | 1012 | Thundershowers | 08 KM | |
| 2025-02-22 01:01:03 | 24 | 98 | 24 | 120 | 1.9 | 1012 | Thundershowers | 07 KM | |
| 2025-02-21 23:59:29 | 25 | 94 | 24 | 120 | 9.5 | 1013 | Thundershowers | 07 KM | |
| 2025-02-21 23:00:09 | 28 | 84 | 25 | 170 | 7.6 | 1013 | Thundershowers | 08 KM | |
| 2025-02-21 21:59:10 | 28 | 72 | 24 | 310 | 9.5 | 1012 | Night Thunderstorm | 10 KM | |
| 2025-02-21 21:03:08 | 28 | 82 | 25 | 300 | 7.6 | 1011 | Night Thunderstorm | 10 KM |